createdAt,value
2017-07-12T00:01:27.148Z,16.10
2017-07-12T00:03:54.775Z,16.10
2017-07-12T00:06:23.277Z,16.10
2017-07-12T00:08:50.855Z,16.10
2017-07-12T00:11:18.398Z,16.10
2017-07-12T00:13:45.963Z,16.10
2017-07-12T00:16:13.490Z,16.10
2017-07-12T00:18:41.053Z,16.10
2017-07-12T00:21:08.577Z,16.10
2017-07-12T00:23:36.139Z,16.10
2017-07-12T00:26:03.697Z,16.10
2017-07-12T00:28:31.275Z,16.10
2017-07-12T00:30:58.820Z,16.10
2017-07-12T00:33:26.401Z,16.10
2017-07-12T00:35:53.946Z,16.00
2017-07-12T00:38:21.539Z,16.10
2017-07-12T00:40:49.074Z,16.10
2017-07-12T00:43:16.637Z,16.10
2017-07-12T00:45:44.173Z,16.10
2017-07-12T00:48:11.755Z,16.10
2017-07-12T00:50:39.287Z,16.10
2017-07-12T00:53:06.879Z,16.10
2017-07-12T00:55:34.405Z,16.10
2017-07-12T00:58:01.977Z,16.10
2017-07-12T01:00:29.522Z,16.10
2017-07-12T01:02:57.091Z,16.10
2017-07-12T01:05:24.639Z,16.10
2017-07-12T01:07:52.232Z,16.10
2017-07-12T01:10:19.757Z,16.20
2017-07-12T01:12:47.724Z,16.10
2017-07-12T01:15:15.256Z,16.10
2017-07-12T01:17:42.838Z,16.10
2017-07-12T01:20:10.402Z,16.10
2017-07-12T01:22:38.383Z,16.10
2017-07-12T01:25:05.907Z,16.10
2017-07-12T01:27:33.432Z,16.10
2017-07-12T01:30:00.993Z,16.10
2017-07-12T01:32:28.519Z,16.10
2017-07-12T01:34:56.090Z,16.10
2017-07-12T01:37:23.645Z,16.10
2017-07-12T01:39:51.228Z,16.10
2017-07-12T01:42:18.755Z,16.10
2017-07-12T01:44:46.312Z,16.10
2017-07-12T01:47:13.854Z,16.10
2017-07-12T01:49:41.820Z,16.00
2017-07-12T01:52:09.744Z,16.00
2017-07-12T01:54:37.314Z,16.00
2017-07-12T01:57:04.849Z,16.00
2017-07-12T01:59:32.408Z,16.00
2017-07-12T02:01:59.943Z,16.10
2017-07-12T02:04:27.504Z,16.10
2017-07-12T02:06:55.028Z,16.10
2017-07-12T02:09:22.998Z,16.10
2017-07-12T02:11:50.933Z,16.10
2017-07-12T02:14:18.509Z,16.10
2017-07-12T02:16:46.049Z,16.10
2017-07-12T02:19:13.617Z,16.10
2017-07-12T02:21:41.165Z,16.10
2017-07-12T02:24:08.719Z,16.10
2017-07-12T02:26:36.276Z,16.10
2017-07-12T02:29:03.844Z,16.10
2017-07-12T02:31:31.392Z,16.10
2017-07-12T02:33:58.967Z,16.00
2017-07-12T02:36:26.519Z,16.00
2017-07-12T02:38:54.336Z,16.00
2017-07-12T02:41:21.883Z,16.00
2017-07-12T02:43:49.457Z,16.00
2017-07-12T02:46:17.009Z,15.90
2017-07-12T02:48:44.569Z,15.90
2017-07-12T02:51:12.112Z,15.90
2017-07-12T02:53:39.670Z,15.90
2017-07-12T02:56:07.602Z,15.90
2017-07-12T02:58:35.187Z,15.90
2017-07-12T03:01:02.719Z,15.90
2017-07-12T03:03:30.274Z,15.90
2017-07-12T03:05:57.807Z,15.80
2017-07-12T03:08:25.398Z,15.80
2017-07-12T03:10:52.958Z,15.80
2017-07-12T03:13:20.508Z,15.80
2017-07-12T03:15:48.061Z,15.80
2017-07-12T03:18:15.600Z,15.80
2017-07-12T03:20:43.157Z,15.80
2017-07-12T03:23:10.695Z,15.80
2017-07-12T03:25:38.246Z,15.80
2017-07-12T03:28:05.787Z,15.80
2017-07-12T03:30:33.366Z,15.70
2017-07-12T03:33:00.916Z,15.80
2017-07-12T03:35:28.895Z,15.70
2017-07-12T03:37:56.436Z,15.70
2017-07-12T03:40:24.007Z,15.70
2017-07-12T03:42:51.587Z,15.70
2017-07-12T03:45:19.161Z,15.70
2017-07-12T03:47:46.700Z,15.70
2017-07-12T03:50:14.270Z,15.70
2017-07-12T03:52:41.806Z,15.70
2017-07-12T03:55:09.361Z,15.70
2017-07-12T03:57:36.908Z,15.70
2017-07-12T04:00:04.856Z,15.70
2017-07-12T04:02:32.404Z,15.70
2017-07-12T04:04:59.977Z,15.60
2017-07-12T04:07:27.515Z,15.60
2017-07-12T04:09:55.103Z,15.60
2017-07-12T04:12:23.959Z,15.60
2017-07-12T04:14:51.553Z,15.60
2017-07-12T04:17:19.089Z,15.60
2017-07-12T04:19:46.706Z,15.60
2017-07-12T04:22:14.248Z,15.60
2017-07-12T04:24:41.805Z,15.60
2017-07-12T04:27:09.776Z,15.60
2017-07-12T04:29:37.347Z,15.60
2017-07-12T04:32:04.871Z,15.60
2017-07-12T04:34:32.450Z,15.50
2017-07-12T04:37:00.011Z,15.60
2017-07-12T04:39:27.618Z,15.60
2017-07-12T04:41:55.179Z,15.60
2017-07-12T04:44:22.736Z,15.60
2017-07-12T04:46:50.293Z,15.60
2017-07-12T04:49:17.839Z,15.60
2017-07-12T04:51:45.398Z,15.60
2017-07-12T04:54:12.929Z,15.60
2017-07-12T04:56:40.498Z,15.60
2017-07-12T04:59:08.025Z,15.60
2017-07-12T05:01:35.618Z,15.70
2017-07-12T05:04:03.169Z,15.70
2017-07-12T05:06:30.731Z,15.70
2017-07-12T05:08:58.290Z,15.70
2017-07-12T05:11:25.855Z,15.70
2017-07-12T05:13:53.399Z,15.70
2017-07-12T05:16:20.962Z,15.70
2017-07-12T05:18:48.506Z,15.70
2017-07-12T05:21:16.094Z,15.70
2017-07-12T05:23:43.642Z,15.70
2017-07-12T05:26:11.206Z,15.70
2017-07-12T05:28:38.740Z,15.70
2017-07-12T05:31:06.301Z,15.70
2017-07-12T05:33:33.849Z,15.70
2017-07-12T05:36:01.414Z,15.70
2017-07-12T05:38:28.963Z,15.70
2017-07-12T05:40:56.569Z,15.70
2017-07-12T05:43:24.100Z,15.70
2017-07-12T05:45:51.685Z,15.70
2017-07-12T05:48:22.480Z,15.70
2017-07-12T05:50:50.037Z,15.70
2017-07-12T05:53:17.586Z,15.80
2017-07-12T05:55:45.572Z,15.80
2017-07-12T05:58:13.128Z,15.80
2017-07-12T06:00:40.683Z,15.80
2017-07-12T06:03:08.215Z,15.80
2017-07-12T06:05:35.784Z,15.80
2017-07-12T06:08:03.327Z,15.80
2017-07-12T06:10:30.861Z,15.80
2017-07-12T06:12:58.445Z,15.80
2017-07-12T06:15:25.995Z,15.80
2017-07-12T06:17:53.572Z,15.90
2017-07-12T06:20:21.713Z,15.80
2017-07-12T06:22:49.302Z,15.90
2017-07-12T06:25:16.835Z,15.80
2017-07-12T06:27:44.402Z,15.70
2017-07-12T06:30:11.954Z,15.70
2017-07-12T06:32:39.525Z,15.70
2017-07-12T06:35:07.072Z,15.70
2017-07-12T06:37:34.653Z,15.60
2017-07-12T06:40:02.219Z,15.60
2017-07-12T06:42:30.179Z,15.70
2017-07-12T06:44:57.726Z,15.70
2017-07-12T06:47:25.289Z,15.80
2017-07-12T06:49:52.813Z,15.70
2017-07-12T06:52:20.399Z,15.80
2017-07-12T06:54:47.949Z,15.80
2017-07-12T06:57:15.594Z,15.80
2017-07-12T06:59:43.137Z,15.90
2017-07-12T07:02:10.723Z,15.90
2017-07-12T07:04:38.267Z,15.90
2017-07-12T07:07:05.843Z,15.90
2017-07-12T07:09:33.386Z,15.90
2017-07-12T07:12:00.949Z,15.90
2017-07-12T07:14:28.501Z,15.90
2017-07-12T07:16:56.079Z,16.00
2017-07-12T07:19:23.633Z,16.00
2017-07-12T07:21:51.202Z,15.90
2017-07-12T07:24:18.741Z,15.90
2017-07-12T07:26:46.314Z,15.90
2017-07-12T07:29:13.854Z,15.90
2017-07-12T07:31:41.434Z,15.90
2017-07-12T07:34:09.034Z,15.90
2017-07-12T07:36:36.594Z,15.90
2017-07-12T07:39:04.136Z,15.90
2017-07-12T07:41:31.703Z,15.90
2017-07-12T07:43:59.258Z,15.90
2017-07-12T07:46:26.829Z,16.00
2017-07-12T07:48:54.408Z,16.00
2017-07-12T07:51:21.948Z,15.90
2017-07-12T07:53:49.515Z,15.90
2017-07-12T07:56:17.060Z,15.90
2017-07-12T07:58:45.021Z,15.90
2017-07-12T08:01:12.963Z,15.90
2017-07-12T08:03:40.535Z,15.90
2017-07-12T08:06:08.080Z,15.90
2017-07-12T08:08:35.640Z,15.90
2017-07-12T08:11:03.179Z,15.90
2017-07-12T08:13:30.752Z,16.00
2017-07-12T08:15:58.344Z,16.00
2017-07-12T08:18:26.374Z,16.00
2017-07-12T08:20:53.936Z,16.00
2017-07-12T08:23:22.275Z,15.90
2017-07-12T08:25:49.824Z,16.00
2017-07-12T08:28:17.403Z,16.00
2017-07-12T08:30:44.955Z,16.00
2017-07-12T08:33:12.538Z,16.00
2017-07-12T08:35:40.070Z,16.00
2017-07-12T08:38:07.634Z,16.00
2017-07-12T08:40:35.189Z,16.00
2017-07-12T08:43:02.761Z,16.00
2017-07-12T08:45:30.288Z,16.10
2017-07-12T08:47:57.900Z,16.10
2017-07-12T08:50:25.475Z,16.10
2017-07-12T08:52:53.051Z,16.10
2017-07-12T08:55:20.591Z,16.10
2017-07-12T08:57:48.145Z,16.10
2017-07-12T09:00:15.680Z,16.10
2017-07-12T09:02:43.246Z,16.10
2017-07-12T09:05:10.901Z,16.00
2017-07-12T09:07:38.469Z,15.90
2017-07-12T09:10:06.020Z,15.90
2017-07-12T09:12:33.576Z,15.90
2017-07-12T09:15:01.093Z,15.90
2017-07-12T09:17:28.663Z,15.90
2017-07-12T09:19:56.189Z,15.90
2017-07-12T09:22:24.116Z,15.90
2017-07-12T09:34:42.366Z,15.90
2017-07-12T09:37:09.945Z,15.90
2017-07-12T09:39:37.501Z,16.00
2017-07-12T09:42:05.123Z,16.00
2017-07-12T09:44:32.681Z,16.00
2017-07-12T09:47:00.218Z,16.00
2017-07-12T09:49:27.856Z,16.00
2017-07-12T09:51:55.519Z,16.00
2017-07-12T09:54:23.115Z,16.00
2017-07-12T09:56:50.674Z,16.10
2017-07-12T09:59:18.319Z,16.10
2017-07-12T10:01:45.871Z,16.00
2017-07-12T10:04:14.259Z,16.00
2017-07-12T10:06:41.875Z,16.00
2017-07-12T10:09:09.412Z,16.10
2017-07-12T10:11:36.973Z,16.10
2017-07-12T10:14:04.564Z,16.20
2017-07-12T10:16:32.146Z,16.20
2017-07-12T10:18:59.678Z,16.20
2017-07-12T10:21:27.250Z,16.30
2017-07-12T10:23:54.835Z,16.30
2017-07-12T10:26:23.712Z,16.30
2017-07-12T10:28:51.324Z,16.30
2017-07-12T10:31:18.893Z,16.30
2017-07-12T10:33:46.464Z,16.30
2017-07-12T10:36:14.016Z,16.30
2017-07-12T10:38:41.595Z,16.30
2017-07-12T10:41:09.263Z,16.30
2017-07-12T10:43:36.807Z,16.30
2017-07-12T10:46:04.394Z,16.30
2017-07-12T10:48:31.935Z,16.30
2017-07-12T10:50:59.539Z,16.30
2017-07-12T10:53:27.104Z,16.30
2017-07-12T10:55:54.681Z,16.30
2017-07-12T10:58:23.442Z,16.30
2017-07-12T11:00:51.567Z,16.30
2017-07-12T11:03:19.125Z,16.30
2017-07-12T11:05:46.725Z,16.30
2017-07-12T11:08:14.285Z,16.40
2017-07-12T11:10:41.831Z,16.40
2017-07-12T11:13:09.373Z,16.40
2017-07-12T11:15:36.984Z,16.40
2017-07-12T11:18:04.548Z,16.50
2017-07-12T11:20:32.156Z,16.50
2017-07-12T11:22:59.705Z,16.50
2017-07-12T11:25:27.256Z,16.50
2017-07-12T11:27:54.802Z,16.50
2017-07-12T11:30:22.405Z,16.50
2017-07-12T11:32:50.350Z,16.60
2017-07-12T11:35:17.880Z,16.60
2017-07-12T11:37:45.522Z,16.60
2017-07-12T11:40:13.167Z,16.60
2017-07-12T11:42:40.752Z,16.70
2017-07-12T11:45:10.481Z,16.70
2017-07-12T11:47:38.031Z,16.70
2017-07-12T11:50:05.604Z,16.80
2017-07-12T11:52:33.149Z,16.80
2017-07-12T11:55:00.738Z,16.80
2017-07-12T11:57:28.308Z,16.80
2017-07-12T11:59:55.877Z,16.80
2017-07-12T12:02:23.487Z,16.80
2017-07-12T12:04:51.570Z,16.80
2017-07-12T12:07:19.174Z,16.80
2017-07-12T12:09:47.119Z,16.80
2017-07-12T12:12:14.697Z,16.80
2017-07-12T12:14:42.284Z,16.80
2017-07-12T12:17:09.863Z,16.90
2017-07-12T12:19:37.426Z,16.90
2017-07-12T12:22:05.021Z,16.90
2017-07-12T12:24:32.593Z,17.00
2017-07-12T12:27:00.143Z,17.10
2017-07-12T12:29:27.704Z,17.10
2017-07-12T12:31:55.256Z,17.10
2017-07-12T12:34:24.049Z,17.20
2017-07-12T12:36:53.029Z,16.70
2017-07-12T12:39:20.592Z,16.70
2017-07-12T12:41:48.204Z,16.50
2017-07-12T12:44:15.757Z,16.30
2017-07-12T12:46:43.317Z,16.30
2017-07-12T12:49:10.880Z,16.20
2017-07-12T12:51:38.511Z,16.20
2017-07-12T12:54:06.104Z,16.10
2017-07-12T12:56:33.642Z,16.10
2017-07-12T12:59:01.339Z,16.00
2017-07-12T13:01:28.995Z,16.10
2017-07-12T13:03:56.558Z,16.00
2017-07-12T13:06:24.092Z,15.90
2017-07-12T13:08:51.665Z,15.90
2017-07-12T13:11:19.208Z,15.90
2017-07-12T13:13:46.772Z,15.90
2017-07-12T13:16:14.352Z,15.90
2017-07-12T13:18:41.910Z,15.90
2017-07-12T13:21:09.484Z,15.90
2017-07-12T13:23:37.094Z,15.90
2017-07-12T13:26:04.707Z,15.90
2017-07-12T13:28:32.227Z,15.90
2017-07-12T13:30:59.809Z,15.90
2017-07-12T13:33:27.375Z,15.90
2017-07-12T13:35:54.949Z,15.90
2017-07-12T13:38:22.653Z,15.90
2017-07-12T13:40:50.226Z,15.80
2017-07-12T13:43:17.786Z,15.80
2017-07-12T13:45:45.350Z,15.90
2017-07-12T13:48:12.929Z,15.90
2017-07-12T13:50:40.535Z,15.90
2017-07-12T13:53:08.144Z,15.80
2017-07-12T13:55:35.760Z,15.80
2017-07-12T13:58:03.445Z,15.80
2017-07-12T14:00:31.078Z,15.80
2017-07-12T14:02:58.819Z,15.80
2017-07-12T14:05:26.386Z,15.70
2017-07-12T14:07:54.353Z,15.70
2017-07-12T14:10:22.322Z,15.80
2017-07-12T14:12:49.933Z,15.80
2017-07-12T14:15:17.664Z,15.80
2017-07-12T14:17:45.247Z,15.90
2017-07-12T14:20:12.848Z,16.10
2017-07-12T14:22:40.429Z,16.30
2017-07-12T14:25:08.022Z,16.50
2017-07-12T14:27:35.591Z,16.60
2017-07-12T14:30:03.198Z,16.70
2017-07-12T14:32:30.760Z,16.70
2017-07-12T14:34:58.742Z,16.50
2017-07-12T14:37:26.705Z,16.50
2017-07-12T14:39:54.245Z,16.50
2017-07-12T14:42:22.289Z,16.50
2017-07-12T14:44:51.687Z,16.50
2017-07-12T14:47:19.257Z,16.50
2017-07-12T14:49:46.846Z,16.40
2017-07-12T14:52:14.479Z,16.40
2017-07-12T14:54:42.016Z,16.30
2017-07-12T14:57:09.636Z,16.20
2017-07-12T14:59:37.242Z,16.20
2017-07-12T15:02:04.853Z,16.20
2017-07-12T15:04:32.488Z,16.20
2017-07-12T15:07:00.044Z,16.30
2017-07-12T15:09:27.648Z,16.30
2017-07-12T15:11:55.197Z,16.40
2017-07-12T15:14:24.528Z,16.40
2017-07-12T15:16:52.140Z,16.40
2017-07-12T15:19:20.116Z,16.40
2017-07-12T15:21:47.688Z,16.40
2017-07-12T15:24:15.280Z,16.40
2017-07-12T15:26:42.886Z,16.40
2017-07-12T15:29:10.877Z,16.30
2017-07-12T15:31:38.435Z,16.30
2017-07-12T15:34:05.998Z,16.30
2017-07-12T15:36:33.549Z,16.30
2017-07-12T15:39:01.258Z,16.40
2017-07-12T15:41:28.836Z,16.40
2017-07-12T15:43:56.442Z,16.50
2017-07-12T15:46:24.021Z,16.50
2017-07-12T15:48:51.588Z,16.50
2017-07-12T15:51:19.169Z,16.40
2017-07-12T15:53:46.763Z,16.30
2017-07-12T15:56:14.390Z,16.20
2017-07-12T15:58:41.953Z,16.10
2017-07-12T16:01:09.584Z,16.10
2017-07-12T16:03:37.170Z,16.00
2017-07-12T16:06:04.749Z,15.90
2017-07-12T16:08:32.445Z,15.90
2017-07-12T16:10:59.933Z,15.90
2017-07-12T16:13:27.515Z,15.90
2017-07-12T16:15:55.501Z,15.80
2017-07-12T16:18:23.080Z,15.80
2017-07-12T16:20:50.655Z,15.80
2017-07-12T16:23:18.193Z,15.80
2017-07-12T16:25:45.964Z,15.70
2017-07-12T16:28:13.492Z,15.60
2017-07-12T16:30:41.061Z,15.60
2017-07-12T16:33:08.628Z,15.50
2017-07-12T16:35:36.228Z,15.60
2017-07-12T16:38:03.809Z,15.50
2017-07-12T16:40:31.385Z,15.50
2017-07-12T16:42:59.046Z,15.40
2017-07-12T16:45:26.670Z,15.40
2017-07-12T16:47:54.235Z,15.30
2017-07-12T16:50:21.878Z,15.20
2017-07-12T16:52:49.486Z,15.10
2017-07-12T16:55:17.065Z,15.00
2017-07-12T16:57:44.636Z,14.90
2017-07-12T17:00:12.238Z,14.80
2017-07-12T17:02:39.883Z,14.80
2017-07-12T17:05:07.499Z,14.80
2017-07-12T17:07:35.066Z,14.80
2017-07-12T17:10:02.662Z,14.80
2017-07-12T17:12:30.314Z,14.80
2017-07-12T17:14:57.857Z,14.80
2017-07-12T17:17:25.404Z,14.80
2017-07-12T17:19:53.847Z,14.80
2017-07-12T17:22:22.274Z,14.80
2017-07-12T17:24:50.611Z,14.80
2017-07-12T17:27:18.548Z,14.80
2017-07-12T17:29:46.263Z,14.80
2017-07-12T17:32:13.822Z,14.80
2017-07-12T17:34:41.368Z,14.80
2017-07-12T17:37:08.908Z,14.80
2017-07-12T17:39:36.440Z,14.80
2017-07-12T17:42:04.000Z,14.80
2017-07-12T17:44:31.618Z,14.80
2017-07-12T17:46:59.198Z,14.80
2017-07-12T17:49:26.868Z,14.80
2017-07-12T17:51:54.435Z,14.80
2017-07-12T17:54:22.022Z,14.80
2017-07-12T17:56:49.567Z,14.80
2017-07-12T17:59:17.151Z,14.90
2017-07-12T18:01:45.076Z,14.90
2017-07-12T18:04:12.738Z,14.90
2017-07-12T18:06:40.286Z,14.90
2017-07-12T18:09:07.862Z,14.90
2017-07-12T18:11:35.430Z,14.90
2017-07-12T18:14:03.079Z,14.90
2017-07-12T18:16:30.730Z,14.80
2017-07-12T18:18:58.270Z,14.80
2017-07-12T18:21:25.827Z,14.80
2017-07-12T18:23:53.380Z,14.80
2017-07-12T18:26:20.917Z,14.80
2017-07-12T18:28:48.502Z,14.80
2017-07-12T18:31:16.084Z,14.80
2017-07-12T18:33:43.616Z,14.80
2017-07-12T18:36:11.215Z,14.80
2017-07-12T18:38:38.867Z,14.80
2017-07-12T18:41:06.429Z,14.80
2017-07-12T18:43:33.987Z,14.80
2017-07-12T18:46:01.550Z,14.80
2017-07-12T18:48:29.124Z,14.80
2017-07-12T18:50:56.704Z,14.80
2017-07-12T18:53:24.314Z,14.80
2017-07-12T18:55:52.037Z,14.80
2017-07-12T18:58:21.916Z,14.80
2017-07-12T19:00:50.128Z,14.80
2017-07-12T19:03:17.748Z,14.80
2017-07-12T19:05:45.396Z,14.80
2017-07-12T19:08:12.967Z,14.80
2017-07-12T19:10:40.734Z,14.70
2017-07-12T19:13:08.264Z,14.70
2017-07-12T19:15:36.889Z,14.60
2017-07-12T19:18:04.498Z,14.60
2017-07-12T19:20:32.061Z,14.60
2017-07-12T19:22:59.673Z,14.50
2017-07-12T19:25:27.646Z,14.40
2017-07-12T19:27:55.232Z,14.40
2017-07-12T19:30:22.838Z,14.40
2017-07-12T19:32:50.432Z,14.30
2017-07-12T19:35:18.633Z,14.30
2017-07-12T19:37:46.849Z,14.20
2017-07-12T19:40:14.506Z,14.20
2017-07-12T19:42:42.115Z,14.20
2017-07-12T19:45:09.749Z,14.10
2017-07-12T19:47:37.376Z,14.00
2017-07-12T19:50:11.368Z,14.00
2017-07-12T19:52:38.946Z,13.90
2017-07-12T19:55:06.482Z,13.80
2017-07-12T19:57:34.031Z,13.70
2017-07-12T20:00:01.584Z,13.70
2017-07-12T20:02:29.145Z,13.60
2017-07-12T20:04:56.691Z,13.60
2017-07-12T20:07:24.225Z,13.50
2017-07-12T20:09:52.217Z,13.40
2017-07-12T20:12:19.761Z,13.40
2017-07-12T20:14:47.378Z,13.30
2017-07-12T20:17:14.932Z,13.20
2017-07-12T20:19:42.497Z,13.20
2017-07-12T20:22:10.047Z,13.10
2017-07-12T20:24:37.626Z,13.10
2017-07-12T20:27:05.189Z,13.10
2017-07-12T20:29:32.730Z,13.00
2017-07-12T20:32:00.261Z,13.00
2017-07-12T20:34:27.828Z,12.90
2017-07-12T20:36:55.352Z,12.90
2017-07-12T20:39:22.913Z,12.70
2017-07-12T20:41:50.449Z,12.70
2017-07-12T20:44:18.013Z,12.70
2017-07-12T20:46:45.949Z,12.60
2017-07-12T20:49:13.482Z,12.60
2017-07-12T20:51:41.120Z,12.50
2017-07-12T20:54:08.656Z,12.50
2017-07-12T20:56:36.212Z,12.50
2017-07-12T20:59:03.748Z,12.40
2017-07-12T21:01:33.300Z,12.40
2017-07-12T21:04:00.839Z,12.30
2017-07-12T21:06:28.388Z,12.30
2017-07-12T21:08:55.937Z,12.30
2017-07-12T21:11:23.487Z,12.20
2017-07-12T21:13:51.033Z,12.10
2017-07-12T21:16:18.594Z,12.00
2017-07-12T21:18:46.126Z,12.00
2017-07-12T21:21:13.720Z,11.90
2017-07-12T21:23:41.244Z,11.90
2017-07-12T21:26:08.792Z,11.80
2017-07-12T21:28:36.328Z,11.80
2017-07-12T21:31:03.870Z,11.80
2017-07-12T21:33:31.828Z,11.80
2017-07-12T21:35:59.763Z,11.70
2017-07-12T21:38:27.327Z,11.70
2017-07-12T21:40:55.095Z,11.70
2017-07-12T21:43:22.693Z,11.70
2017-07-12T21:45:50.647Z,11.70
2017-07-12T21:48:18.585Z,11.60
2017-07-12T21:50:46.155Z,11.60
2017-07-12T21:53:31.344Z,11.60
2017-07-12T21:56:16.963Z,11.50
2017-07-12T21:59:02.176Z,11.50
2017-07-12T22:01:47.340Z,11.40
2017-07-12T22:04:32.359Z,11.30
2017-07-12T22:07:17.536Z,11.30
2017-07-12T22:10:02.560Z,11.20
2017-07-12T22:12:47.545Z,11.20
2017-07-12T22:15:32.500Z,11.20
2017-07-12T22:18:17.860Z,11.20
2017-07-12T22:21:03.001Z,11.10
2017-07-12T22:23:48.282Z,11.10
2017-07-12T22:26:33.544Z,11.00
2017-07-12T22:29:18.705Z,10.90
2017-07-12T22:32:03.871Z,10.90
2017-07-12T22:34:48.929Z,10.90
2017-07-12T22:37:22.495Z,10.90
2017-07-12T22:39:55.728Z,10.90
2017-07-12T22:42:28.999Z,10.80
2017-07-12T22:44:56.565Z,10.80
2017-07-12T22:47:24.500Z,10.80
2017-07-12T22:49:52.043Z,10.80
2017-07-12T22:52:19.575Z,10.80
2017-07-12T22:54:47.104Z,10.80
2017-07-12T22:57:14.652Z,10.70
2017-07-12T22:59:42.190Z,10.70
2017-07-12T23:02:09.748Z,10.70
2017-07-12T23:04:37.318Z,10.70
2017-07-12T23:07:04.867Z,10.70
2017-07-12T23:09:32.393Z,10.60
2017-07-12T23:11:59.912Z,10.60
2017-07-12T23:14:27.460Z,10.50
2017-07-12T23:16:54.984Z,10.50
2017-07-12T23:19:22.519Z,10.40
2017-07-12T23:21:50.051Z,10.40
2017-07-12T23:24:17.604Z,10.30
2017-07-12T23:26:45.138Z,10.30
2017-07-12T23:29:12.677Z,10.30
2017-07-12T23:31:40.211Z,10.20
2017-07-12T23:34:07.743Z,10.20
2017-07-12T23:36:35.700Z,10.20
2017-07-12T23:39:15.817Z,10.20
2017-07-12T23:41:43.352Z,10.10
2017-07-12T23:44:10.876Z,10.10
2017-07-12T23:46:38.811Z,10.10
2017-07-12T23:49:06.355Z,10.10
2017-07-12T23:51:33.890Z,10.10
2017-07-12T23:54:01.440Z,10.00
2017-07-12T23:56:28.994Z,10.00
2017-07-12T23:58:56.526Z,9.90
